Time;durP1;ratioP1;P1;durP2;ratioP2;P2;SDS_P1;SDS_P2;PMS_P1;PMS_P2;Temp;Humidity;BMP_temperature;BMP_pressure;BME280_temperature;BME280_humidity;BME280_pressure;Samples;Min_cycle;Max_cycle;Signal;HPM_P1;HPM_P2
2020/12/08 00:01:31;;;;;;;11.45;6.20;;;;;;;3.38;75.57;93437.09;5010489;28;20072;-68
2020/12/08 00:03:57;;;;;;;9.82;6.05;;;;;;;3.38;75.78;93436.31;5010844;28;20409;-68
2020/12/08 00:06:22;;;;;;;9.52;5.60;;;;;;;3.42;76.13;93446.00;5010300;28;20026;-69
2020/12/08 00:08:47;;;;;;;11.90;6.70;;;;;;;3.50;75.89;93444.63;5008489;28;20475;-68
2020/12/08 00:11:17;;;;;;;9.52;5.40;;;;;;;3.52;75.52;93453.03;5010459;28;20487;-68
2020/12/08 00:13:46;;;;;;;12.45;6.90;;;;;;;3.46;75.27;93453.34;5008741;28;20561;-68
2020/12/08 00:16:12;;;;;;;13.93;5.57;;;;;;;3.45;75.31;93462.31;5008939;28;20018;-66
2020/12/08 00:18:39;;;;;;;12.48;6.25;;;;;;;3.39;75.38;93457.06;5010084;28;20026;-68
2020/12/08 00:21:04;;;;;;;12.93;5.60;;;;;;;3.38;75.34;93458.16;5009188;28;20033;-68
2020/12/08 00:23:30;;;;;;;11.15;6.35;;;;;;;3.37;75.24;93467.09;5010286;28;20480;-68
2020/12/08 00:25:56;;;;;;;11.00;5.90;;;;;;;3.34;75.48;93467.69;5008758;28;20420;-68
2020/12/08 00:28:21;;;;;;;9.77;5.82;;;;;;;3.29;75.55;93464.28;5008797;28;20033;-68
2020/12/08 00:30:47;;;;;;;11.43;6.32;;;;;;;3.29;75.48;93462.44;5008777;28;20454;-68
2020/12/08 00:33:12;;;;;;;10.55;5.75;;;;;;;3.25;75.65;93465.91;5008967;28;20026;-68
2020/12/08 00:35:37;;;;;;;11.07;6.22;;;;;;;3.20;75.86;93475.44;5008864;28;20030;-68
2020/12/08 00:38:03;;;;;;;9.77;5.38;;;;;;;3.19;76.13;93478.31;5010099;28;20374;-68
2020/12/08 00:40:28;;;;;;;12.27;6.72;;;;;;;3.16;76.33;93477.03;5008783;28;20057;-68
2020/12/08 00:42:54;;;;;;;10.45;5.88;;;;;;;3.15;76.06;93469.41;5009798;28;20057;-68
2020/12/08 00:45:19;;;;;;;13.35;6.30;;;;;;;3.15;76.39;93474.66;5008890;28;20021;-68
2020/12/08 00:47:48;;;;;;;11.18;5.40;;;;;;;3.19;76.22;93473.06;5010314;28;20511;-68
2020/12/08 00:50:13;;;;;;;12.40;6.15;;;;;;;3.25;76.11;93471.97;5010415;28;20014;-67
2020/12/08 00:52:39;;;;;;;11.55;5.90;;;;;;;3.26;75.55;93465.63;5010536;28;20033;-66
2020/12/08 00:55:05;;;;;;;12.50;6.30;;;;;;;3.31;75.60;93467.44;5008775;28;20061;-67
2020/12/08 00:57:31;;;;;;;11.63;6.72;;;;;;;3.38;75.42;93473.97;5008854;28;20408;-67
2020/12/08 00:59:56;;;;;;;11.10;6.85;;;;;;;3.45;75.45;93478.13;5008491;28;20116;-66
2020/12/08 01:02:22;;;;;;;11.82;6.38;;;;;;;3.50;74.90;93480.69;5010413;28;20087;-67
2020/12/08 01:04:47;;;;;;;14.05;6.55;;;;;;;3.50;74.92;93486.78;5008824;28;20110;-66
2020/12/08 01:07:13;;;;;;;10.68;6.00;;;;;;;3.46;75.06;93493.66;5010072;28;20113;-67
2020/12/08 01:09:38;;;;;;;11.85;6.35;;;;;;;3.44;75.11;93492.34;5010129;28;20026;-67
2020/12/08 01:12:04;;;;;;;10.13;6.45;;;;;;;3.41;75.28;93491.06;5008342;28;20029;-67
2020/12/08 01:14:33;;;;;;;11.77;6.45;;;;;;;3.39;75.70;93490.56;5010292;28;20604;-67
2020/12/08 01:17:00;;;;;;;10.45;6.55;;;;;;;3.44;76.18;93500.25;5010336;28;20074;-67
2020/12/08 01:19:26;;;;;;;15.55;6.78;;;;;;;3.47;75.48;93486.53;5010743;28;20041;-67
2020/12/08 01:21:52;;;;;;;12.82;6.97;;;;;;;3.51;75.60;93492.81;5012412;28;20034;-67
2020/12/08 01:24:19;;;;;;;10.23;5.93;;;;;;;3.51;75.11;93500.72;5013402;28;20022;-67
2020/12/08 01:26:44;;;;;;;12.85;7.28;;;;;;;3.48;74.96;93496.00;5012319;28;20123;-67
2020/12/08 01:29:10;;;;;;;10.40;6.10;;;;;;;3.32;75.38;93479.56;5013122;28;20065;-67
2020/12/08 01:31:35;;;;;;;9.55;5.97;;;;;;;3.31;75.46;93484.03;5012436;28;20436;-67
2020/12/08 01:34:01;;;;;;;13.65;7.32;;;;;;;3.33;75.56;93481.13;5013539;28;20026;-67
2020/12/08 01:36:26;;;;;;;12.27;6.88;;;;;;;3.35;76.12;93479.78;5013201;28;20037;-67
2020/12/08 01:38:52;;;;;;;9.52;6.05;;;;;;;3.38;75.70;93478.47;5012019;28;20033;-67
2020/12/08 01:41:17;;;;;;;10.77;6.20;;;;;;;3.44;75.52;93476.53;5011556;28;20057;-67
2020/12/08 01:43:56;;;;;;;11.02;5.82;;;;;;;3.52;75.14;93483.84;5013315;28;20442;-67
2020/12/08 01:46:26;;;;;;;9.77;5.90;;;;;;;3.55;74.69;93484.06;5013164;28;20022;-67
2020/12/08 01:48:53;;;;;;;8.80;5.70;;;;;;;3.60;74.75;93472.69;5013182;28;20025;-67
2020/12/08 01:51:20;;;;;;;12.70;6.78;;;;;;;3.61;74.24;93487.47;5011600;28;20040;-67
2020/12/08 01:53:50;;;;;;;11.70;6.47;;;;;;;3.63;74.50;93490.59;5011885;28;20113;-67
2020/12/08 01:56:16;;;;;;;11.90;6.43;;;;;;;3.67;74.71;93491.63;5011933;28;20113;-67
2020/12/08 01:58:41;;;;;;;10.38;6.10;;;;;;;3.70;74.98;93480.50;5011429;28;20030;-67
2020/12/08 02:01:11;;;;;;;11.00;6.65;;;;;;;3.76;74.58;93492.56;5011742;28;20076;-67
2020/12/08 02:03:37;;;;;;;10.20;5.80;;;;;;;3.78;73.94;93487.81;5012668;28;20475;-67
2020/12/08 02:06:02;;;;;;;7.88;5.15;;;;;;;3.76;74.26;93484.66;5012864;28;20032;-67
2020/12/08 02:08:33;;;;;;;10.77;6.10;;;;;;;3.76;74.41;93481.25;5012589;28;20033;-68
2020/12/08 02:10:58;;;;;;;10.70;4.65;;;;;;;3.81;74.16;93481.97;5011580;28;20017;-67
2020/12/08 02:13:25;;;;;;;8.60;5.28;;;;;;;3.84;74.05;93477.22;5011463;28;20080;-67
2020/12/08 02:15:51;;;;;;;9.23;5.70;;;;;;;3.86;74.21;93475.09;4996644;28;20065;-67
2020/12/08 02:18:19;;;;;;;10.43;5.55;;;;;;;3.94;74.50;93471.84;5011457;28;20125;-67
2020/12/08 02:20:45;;;;;;;11.48;6.15;;;;;;;4.00;73.84;93474.13;5012201;28;20026;-67
2020/12/08 02:23:10;;;;;;;9.85;6.28;;;;;;;4.00;73.79;93476.75;5012568;28;20033;-67
2020/12/08 02:25:36;;;;;;;13.95;7.78;;;;;;;4.04;73.46;93484.91;5012255;28;20079;-67
2020/12/08 02:28:03;;;;;;;11.98;7.75;;;;;;;4.07;73.15;93481.72;5011256;28;20033;-67
2020/12/08 02:30:28;;;;;;;12.60;8.27;;;;;;;4.10;73.24;93485.63;5011752;28;20481;-67
2020/12/08 02:32:54;;;;;;;12.60;7.45;;;;;;;4.10;73.26;93489.06;5010790;28;20041;-67
2020/12/08 02:35:19;;;;;;;11.80;7.00;;;;;;;4.11;73.38;93492.47;5012272;28;20022;-67
2020/12/08 02:37:45;;;;;;;11.45;7.00;;;;;;;4.11;73.61;93493.28;5012017;28;20095;-67
2020/12/08 02:40:11;;;;;;;11.85;7.03;;;;;;;4.14;73.57;93492.69;5010678;28;20033;-68
2020/12/08 02:42:36;;;;;;;11.35;7.20;;;;;;;4.16;73.73;93487.94;5010896;28;20068;-68
2020/12/08 02:45:02;;;;;;;12.00;6.50;;;;;;;4.19;73.28;93492.66;5010496;28;20029;-67
2020/12/08 02:47:28;;;;;;;10.88;6.95;;;;;;;4.17;73.20;93484.25;5010731;28;20029;-67
2020/12/08 02:49:56;;;;;;;14.05;7.28;;;;;;;4.14;73.61;93473.47;5011904;28;20383;-67
2020/12/08 02:52:22;;;;;;;12.38;6.88;;;;;;;4.18;73.72;93474.47;5011955;28;20057;-67
2020/12/08 02:54:48;;;;;;;14.23;8.07;;;;;;;4.22;73.74;93475.47;5011771;28;20084;-67
2020/12/08 02:57:13;;;;;;;12.13;6.20;;;;;;;4.28;73.34;93478.84;5010671;28;20029;-67
2020/12/08 02:59:39;;;;;;;13.43;7.25;;;;;;;4.28;73.16;93478.84;5010453;28;20021;-67
2020/12/08 03:02:04;;;;;;;14.35;7.38;;;;;;;4.24;73.46;93475.19;5010307;28;20481;-67
2020/12/08 03:04:30;;;;;;;11.80;5.97;;;;;;;4.21;73.76;93474.69;5012139;28;20072;-67
2020/12/08 03:06:55;;;;;;;11.93;6.03;;;;;;;4.24;73.84;93467.28;5010243;28;20022;-67
2020/12/08 03:09:20;;;;;;;9.63;4.82;;;;;;;4.27;73.57;93467.47;5011755;28;20093;-67
2020/12/08 03:11:46;;;;;;;7.95;4.70;;;;;;;4.29;73.39;93483.03;5010497;28;20021;-67
2020/12/08 03:14:11;;;;;;;10.93;5.03;;;;;;;4.34;72.72;93477.72;5009957;28;20037;-67
2020/12/08 03:16:37;;;;;;;9.75;4.63;;;;;;;4.33;73.10;93484.03;5010271;28;20030;-68
2020/12/08 03:19:03;;;;;;;9.18;5.00;;;;;;;4.35;72.83;93485.31;5009869;28;20025;-67
2020/12/08 03:21:33;;;;;;;10.73;5.40;;;;;;;4.38;72.45;93481.34;5011729;28;20445;-67
2020/12/08 03:23:58;;;;;;;12.70;6.38;;;;;;;4.37;72.21;93477.13;5009878;28;20172;-68
2020/12/08 03:26:24;;;;;;;9.40;4.95;;;;;;;4.34;72.42;93488.28;5010234;28;20112;-67
2020/12/08 03:28:49;;;;;;;13.35;5.70;;;;;;;4.27;72.75;93493.88;5011610;28;20477;-67
2020/12/08 03:31:15;;;;;;;12.20;5.97;;;;;;;4.26;72.69;93478.34;5009816;28;20112;-67
2020/12/08 03:33:42;;;;;;;11.68;5.40;;;;;;;4.21;73.09;93485.25;5011222;28;20085;-67
2020/12/08 03:36:12;;;;;;;13.85;6.18;;;;;;;4.22;73.18;93481.53;5009658;28;20036;-67
2020/12/08 03:38:37;;;;;;;14.18;7.13;;;;;;;4.17;73.40;93478.97;5009914;28;20030;-67
2020/12/08 03:41:03;;;;;;;19.88;7.78;;;;;;;4.16;73.36;93485.28;5009505;28;20057;-69
2020/12/08 03:43:29;;;;;;;34.88;7.82;;;;;;;4.15;73.42;93494.28;5009004;28;20041;-68
2020/12/08 03:45:54;;;;;;;64.05;9.23;;;;;;;4.16;73.63;93492.44;5009853;28;20410;-68
2020/12/08 03:48:19;;;;;;;25.48;8.88;;;;;;;4.07;74.00;93499.38;5010755;28;21328;-68
2020/12/08 03:50:45;;;;;;;16.08;7.72;;;;;;;4.06;73.93;93493.31;5010095;28;20485;-68
2020/12/08 03:53:10;;;;;;;17.38;7.32;;;;;;;4.01;73.78;93491.53;5010814;28;20037;-68
2020/12/08 03:55:36;;;;;;;25.10;11.25;;;;;;;3.99;73.64;93492.88;5009690;28;20409;-68
2020/12/08 03:58:01;;;;;;;23.50;9.43;;;;;;;3.94;73.98;93501.63;5010895;28;20040;-68
2020/12/08 04:00:26;;;;;;;16.80;7.68;;;;;;;3.87;74.27;93513.56;5009424;28;20041;-68
2020/12/08 04:02:52;;;;;;;14.55;7.85;;;;;;;3.89;74.41;93508.78;5009571;28;20022;-67
2020/12/08 04:05:17;;;;;;;17.40;8.35;;;;;;;3.91;74.29;93517.19;5009432;28;20065;-67
2020/12/08 04:07:43;;;;;;;16.88;7.85;;;;;;;3.89;74.33;93516.69;5010983;28;20104;-67
2020/12/08 04:10:08;;;;;;;29.90;8.57;;;;;;;3.87;74.63;93519.63;5010592;28;20465;-68
2020/12/08 04:12:34;;;;;;;20.65;9.40;;;;;;;3.86;74.58;93519.91;5009360;28;20033;-68
2020/12/08 04:14:59;;;;;;;33.10;9.32;;;;;;;3.86;74.53;93527.81;5010674;28;20024;-67
2020/12/08 04:17:24;;;;;;;19.45;8.85;;;;;;;3.85;75.04;93521.75;5009099;28;20048;-68
2020/12/08 04:19:50;;;;;;;18.60;8.52;;;;;;;3.94;75.06;93525.34;5010816;28;20481;-67
2020/12/08 04:22:15;;;;;;;18.05;8.18;;;;;;;4.00;74.56;93531.38;5010762;28;20080;-67
2020/12/08 04:24:41;;;;;;;23.33;8.88;;;;;;;4.01;74.38;93528.47;5009280;28;20034;-67
2020/12/08 04:27:06;;;;;;;18.63;9.02;;;;;;;4.04;74.48;93526.31;5010626;28;20032;-67
2020/12/08 04:29:32;;;;;;;17.55;8.35;;;;;;;4.07;74.22;93529.19;5008890;28;20034;-67
2020/12/08 04:31:57;;;;;;;18.40;8.65;;;;;;;4.10;74.21;93531.25;5010461;28;20014;-67
2020/12/08 04:34:23;;;;;;;17.63;8.80;;;;;;;4.15;73.76;93533.03;5009090;28;20056;-68
2020/12/08 04:36:48;;;;;;;21.00;9.02;;;;;;;4.20;73.85;93525.09;5010481;28;20030;-67
2020/12/08 04:39:14;;;;;;;17.67;8.45;;;;;;;4.21;73.77;93526.66;5010136;28;20030;-67
2020/12/08 04:41:39;;;;;;;15.80;8.82;;;;;;;4.26;73.85;93528.47;5009933;28;20049;-67
2020/12/08 04:44:05;;;;;;;14.25;7.97;;;;;;;4.27;73.60;93536.06;5009167;28;20402;-67
2020/12/08 04:46:31;;;;;;;16.67;7.82;;;;;;;4.31;72.71;93531.81;5010088;28;20029;-67
2020/12/08 04:48:57;;;;;;;17.80;8.48;;;;;;;4.29;72.88;93533.94;5010256;28;20468;-68
2020/12/08 04:51:23;;;;;;;16.38;8.38;;;;;;;4.30;72.95;93540.03;5010218;28;20097;-67
2020/12/08 04:53:53;;;;;;;22.08;10.05;;;;;;;4.27;73.29;93524.75;5011175;28;20038;-68
2020/12/08 04:56:19;;;;;;;18.00;9.25;;;;;;;4.28;73.43;93531.59;5012921;28;20481;-67
2020/12/08 04:58:45;;;;;;;15.00;8.43;;;;;;;4.28;73.57;93529.75;5012609;28;20109;-68
2020/12/08 05:01:23;;;;;;;12.38;7.32;;;;;;;4.33;73.33;93531.53;5013703;28;20033;-67
2020/12/08 05:03:56;;;;;;;13.55;7.93;;;;;;;4.35;73.22;93532.03;5012270;28;20113;-68
2020/12/08 05:06:22;;;;;;;13.30;8.57;;;;;;;4.36;73.30;93528.34;5013894;28;20026;-67
2020/12/08 05:09:05;;;;;;;16.02;8.40;;;;;;;4.40;73.29;93530.13;5010065;28;20030;-67
2020/12/08 05:11:31;;;;;;;15.63;8.13;;;;;;;4.43;73.07;93534.06;5013713;28;20493;-67
2020/12/08 05:14:06;;;;;;;16.98;8.98;;;;;;;4.47;72.81;93529.78;5012202;28;20053;-68
2020/12/08 05:16:32;;;;;;;13.77;8.18;;;;;;;4.47;72.77;93529.78;5012414;28;20400;-68
2020/12/08 05:19:09;;;;;;;17.95;9.52;;;;;;;4.45;73.16;93542.47;5011996;28;20034;-67
2020/12/08 05:21:46;;;;;;;18.65;11.00;;;;;;;4.49;73.18;93543.47;5013549;28;20541;-67
2020/12/08 05:24:28;;;;;;;21.05;11.13;;;;;;;4.49;73.02;93545.34;5013147;28;20022;-67
2020/12/08 05:27:01;;;;;;;22.00;11.65;;;;;;;4.50;72.87;93545.06;5013173;28;20047;-67
2020/12/08 05:29:28;;;;;;;19.98;10.50;;;;;;;4.52;72.38;93545.56;5012014;28;20080;-68
2020/12/08 05:31:55;;;;;;;25.23;11.73;;;;;;;4.43;72.49;93552.53;5013108;28;20503;-67
2020/12/08 05:34:23;;;;;;;19.80;10.93;;;;;;;4.34;72.64;93548.94;5011880;28;20056;-67
2020/12/08 05:36:51;;;;;;;20.80;10.27;;;;;;;4.23;72.60;93550.91;5011813;28;20092;-67
2020/12/08 05:39:21;;;;;;;23.42;11.65;;;;;;;4.09;73.68;93563.19;5011768;28;20030;-67
2020/12/08 05:41:49;;;;;;;22.27;12.32;;;;;;;4.02;74.22;93550.34;5013127;28;20088;-67
2020/12/08 05:44:23;;;;;;;30.42;13.55;;;;;;;4.06;74.22;93555.84;5013304;28;20026;-67
2020/12/08 05:46:51;;;;;;;31.60;14.90;;;;;;;4.02;74.42;93551.13;5009878;28;20060;-67
2020/12/08 05:49:17;;;;;;;35.92;14.23;;;;;;;3.98;74.79;93559.88;5011676;28;20079;-67
2020/12/08 05:51:45;;;;;;;33.10;13.93;;;;;;;3.98;75.17;93562.50;5012796;28;20018;-68
2020/12/08 05:54:13;;;;;;;30.27;15.48;;;;;;;4.00;74.86;93557.72;5011537;28;20030;-67
2020/12/08 05:56:38;;;;;;;37.42;15.63;;;;;;;3.98;75.18;93559.88;5011573;28;20030;-67
2020/12/08 05:59:04;;;;;;;33.25;16.40;;;;;;;4.04;74.97;93563.25;5012780;28;20030;-67
2020/12/08 06:01:30;;;;;;;30.00;14.77;;;;;;;4.04;74.83;93560.59;5007452;28;20374;-67
2020/12/08 06:03:56;;;;;;;31.48;14.63;;;;;;;4.07;74.34;93552.94;5011468;28;20024;-67
2020/12/08 06:06:21;;;;;;;31.92;14.80;;;;;;;4.07;74.70;93563.47;5007778;28;20538;-68
2020/12/08 06:08:48;;;;;;;31.52;14.55;;;;;;;4.07;74.82;93562.69;5012794;28;20046;-67
2020/12/08 06:11:15;;;;;;;31.17;14.13;;;;;;;4.09;74.95;93566.63;5012473;28;20481;-68
2020/12/08 06:13:50;;;;;;;21.77;13.05;;;;;;;4.15;74.89;93568.16;5011452;28;20037;-67
2020/12/08 06:16:21;;;;;;;30.35;14.70;;;;;;;4.17;74.87;93573.94;5011249;28;20038;-67
2020/12/08 06:18:49;;;;;;;30.60;14.17;;;;;;;4.28;74.70;93579.09;5012511;28;20032;-69
2020/12/08 06:21:23;;;;;;;32.58;15.02;;;;;;;4.36;74.33;93584.53;5012229;28;20083;-68
2020/12/08 06:24:00;;;;;;;23.40;12.88;;;;;;;4.49;74.28;93585.72;5011268;28;20504;-68
2020/12/08 06:26:30;;;;;;;35.80;16.85;;;;;;;4.63;73.37;93589.25;5010902;28;20422;-67
2020/12/08 06:28:56;;;;;;;27.33;13.80;;;;;;;4.73;73.00;93592.84;5012325;28;20025;-67
2020/12/08 06:31:22;;;;;;;25.77;12.77;;;;;;;4.78;72.66;93593.56;5012058;28;20026;-67
2020/12/08 06:33:52;;;;;;;28.15;13.38;;;;;;;4.78;72.58;93595.41;5012280;28;20485;-67
2020/12/08 06:36:20;;;;;;;27.02;13.18;;;;;;;4.80;71.90;93606.47;5012186;28;20060;-67
2020/12/08 06:39:03;;;;;;;24.77;13.18;;;;;;;4.68;72.28;93614.00;5012692;28;20026;-67
2020/12/08 06:41:33;;;;;;;27.33;12.63;;;;;;;4.66;72.46;93603.75;5009665;28;20059;-67
2020/12/08 06:44:00;;;;;;;26.92;12.10;;;;;;;4.68;72.28;93608.72;5012096;28;20033;-67
2020/12/08 06:46:26;;;;;;;27.10;11.95;;;;;;;4.71;72.22;93608.19;5011758;28;20064;-68
2020/12/08 06:49:04;;;;;;;25.13;12.50;;;;;;;4.74;71.99;93607.59;5010742;28;20018;-67
2020/12/08 06:51:30;;;;;;;26.58;12.55;;;;;;;4.75;72.00;93607.31;5011439;28;20025;-67
2020/12/08 06:53:56;;;;;;;22.10;10.77;;;;;;;4.81;71.96;93610.69;5010523;28;20409;-67
2020/12/08 06:56:31;;;;;;;18.73;10.02;;;;;;;4.86;71.38;93605.34;5010348;28;20030;-67
2020/12/08 06:58:57;;;;;;;27.75;11.55;;;;;;;4.90;70.96;93614.28;5011655;28;20026;-68
2020/12/08 07:01:23;;;;;;;25.08;12.27;;;;;;;4.92;70.89;93621.91;5011431;28;20053;-67
2020/12/08 07:03:50;;;;;;;20.35;10.02;;;;;;;4.88;70.83;93629.63;5011788;28;20115;-67
2020/12/08 07:06:15;;;;;;;17.00;10.43;;;;;;;4.86;70.86;93631.75;5011278;28;20392;-67
2020/12/08 07:08:54;;;;;;;18.83;9.88;;;;;;;4.87;70.82;93637.84;5011317;28;20029;-67
2020/12/08 07:11:24;;;;;;;25.73;13.40;;;;;;;4.93;70.79;93628.78;5011565;28;20029;-67
2020/12/08 07:14:15;;;;;;;26.80;13.00;;;;;;;5.02;71.22;93630.50;5010231;28;20034;-67
2020/12/08 07:16:41;;;;;;;22.67;12.30;;;;;;;5.12;71.01;93634.88;5009605;28;20049;-67
2020/12/08 07:19:07;;;;;;;23.90;13.68;;;;;;;5.19;70.76;93642.44;5010090;28;20030;-67
2020/12/08 07:21:33;;;;;;;22.10;13.07;;;;;;;5.21;70.58;93637.66;5011458;28;20029;-67
2020/12/08 07:23:58;;;;;;;24.63;12.30;;;;;;;5.26;70.08;93642.88;5010091;28;20034;-67
2020/12/08 07:26:29;;;;;;;19.42;11.10;;;;;;;5.34;69.08;93638.84;5011175;28;20048;-67
2020/12/08 07:28:56;;;;;;;25.40;11.85;;;;;;;5.42;68.49;93644.25;5009796;28;20454;-67
2020/12/08 07:31:29;;;;;;;23.13;11.55;;;;;;;5.39;68.61;93634.25;5011195;28;20033;-67
2020/12/08 07:33:54;;;;;;;21.95;12.07;;;;;;;5.38;68.64;93643.25;5011087;28;20120;-67
2020/12/08 07:36:27;;;;;;;22.60;12.43;;;;;;;5.36;68.29;93640.09;5010009;28;20112;-68
2020/12/08 07:38:55;;;;;;;24.65;11.40;;;;;;;5.41;68.74;93641.88;5010648;28;20103;-67
2020/12/08 07:41:22;;;;;;;22.00;12.63;;;;;;;5.41;68.93;93652.47;5009613;28;20041;-68
2020/12/08 07:43:47;;;;;;;24.25;12.00;;;;;;;5.38;68.52;93648.53;5009447;28;20033;-67
2020/12/08 07:46:20;;;;;;;25.10;12.63;;;;;;;5.29;69.11;93650.25;5000309;28;20518;-67
2020/12/08 07:48:46;;;;;;;29.60;13.88;;;;;;;5.27;69.17;93652.41;5009721;28;20022;-67
2020/12/08 07:51:11;;;;;;;24.30;12.80;;;;;;;5.26;69.02;93644.75;5009531;28;20061;-68
2020/12/08 07:53:37;;;;;;;23.77;12.48;;;;;;;5.23;69.23;93648.72;5010791;28;20405;-67
2020/12/08 07:56:04;;;;;;;26.15;13.73;;;;;;;5.23;69.35;93651.38;5010407;28;20029;-69
2020/12/08 07:58:30;;;;;;;24.67;13.50;;;;;;;5.21;69.28;93648.22;5010501;28;20048;-71
2020/12/08 08:00:57;;;;;;;25.13;12.65;;;;;;;5.20;69.31;93650.09;5009562;28;20030;-72
2020/12/08 08:03:24;;;;;;;24.70;14.38;;;;;;;5.21;69.03;93648.22;5009122;28;20033;-67
2020/12/08 08:05:49;;;;;;;23.10;12.70;;;;;;;5.24;69.36;93647.66;5010971;28;20041;-66
2020/12/08 08:08:15;;;;;;;26.70;13.98;;;;;;;5.31;69.56;93650.75;5010535;28;20026;-67
2020/12/08 08:10:40;;;;;;;27.20;14.70;;;;;;;5.34;70.15;93657.31;5009298;28;20033;-67
2020/12/08 08:13:06;;;;;;;26.40;14.70;;;;;;;5.36;70.42;93655.97;5010143;28;20468;-67
2020/12/08 08:15:31;;;;;;;24.67;13.45;;;;;;;5.45;70.45;93666.69;5009347;28;20539;-67
2020/12/08 08:17:57;;;;;;;28.35;13.55;;;;;;;5.53;70.42;93675.84;5010552;28;20575;-67
2020/12/08 08:20:22;;;;;;;21.85;11.65;;;;;;;5.65;69.75;93667.47;5010324;28;20116;-69
2020/12/08 08:22:48;;;;;;;22.42;11.93;;;;;;;5.73;69.46;93675.53;5009239;28;20488;-68
2020/12/08 08:25:13;;;;;;;21.25;11.73;;;;;;;5.77;69.36;93660.69;5010216;28;20104;-69
2020/12/08 08:27:39;;;;;;;26.00;12.35;;;;;;;5.85;68.78;93669.03;5009210;28;20032;-68
2020/12/08 08:30:04;;;;;;;23.63;12.50;;;;;;;5.92;68.61;93672.09;5011634;28;20025;-68
2020/12/08 08:32:30;;;;;;;22.15;12.40;;;;;;;6.01;68.33;93686.28;5011891;28;20115;-68
2020/12/08 08:34:55;;;;;;;23.83;12.23;;;;;;;6.10;67.60;93681.91;5014903;28;20099;-68
2020/12/08 08:37:21;;;;;;;20.33;11.50;;;;;;;6.20;67.27;93681.72;5014917;28;20408;-68
2020/12/08 08:39:46;;;;;;;22.10;11.38;;;;;;;6.29;65.58;93681.06;5014622;28;20026;-68
2020/12/08 08:42:12;;;;;;;19.58;11.20;;;;;;;6.33;65.13;93690.00;5014435;28;20164;-68
2020/12/08 08:44:37;;;;;;;20.52;10.75;;;;;;;6.28;65.27;93687.47;5012865;28;20116;-67
2020/12/08 08:47:03;;;;;;;18.20;10.90;;;;;;;6.29;65.82;93681.06;5014474;28;20044;-67
2020/12/08 08:49:28;;;;;;;22.00;12.45;;;;;;;6.33;65.02;93680.22;5014189;28;20022;-68
2020/12/08 08:51:53;;;;;;;22.27;11.68;;;;;;;6.40;65.12;93693.06;5014291;28;20030;-67
2020/12/08 08:54:19;;;;;;;27.63;14.73;;;;;;;6.41;65.39;93686.69;5014207;28;20551;-68
2020/12/08 08:56:44;;;;;;;30.15;15.77;;;;;;;6.34;65.90;93678.34;5014160;28;20404;-68
2020/12/08 08:59:10;;;;;;;33.63;17.20;;;;;;;6.32;66.37;93683.94;5012684;28;20022;-68
2020/12/08 09:01:36;;;;;;;28.83;15.98;;;;;;;6.05;66.41;93682.00;5013779;28;20521;-67
2020/12/08 09:04:02;;;;;;;34.30;17.08;;;;;;;6.10;66.89;93683.75;5014257;28;20053;-68
2020/12/08 09:06:28;;;;;;;31.75;17.63;;;;;;;6.15;66.94;93676.53;5012609;28;20369;-68
2020/12/08 09:08:53;;;;;;;31.13;17.13;;;;;;;6.25;67.20;93675.59;5014061;28;20033;-68
2020/12/08 09:11:19;;;;;;;30.95;15.02;;;;;;;6.40;67.16;93671.91;5014113;28;20030;-68
2020/12/08 09:13:45;;;;;;;29.95;14.93;;;;;;;6.46;65.90;93668.09;5013900;28;20458;-68
2020/12/08 09:16:11;;;;;;;31.30;15.63;;;;;;;6.43;65.42;93672.09;5013876;28;20076;-67
2020/12/08 09:18:37;;;;;;;27.05;14.30;;;;;;;6.52;64.83;93661.63;5013584;28;20068;-67
2020/12/08 09:21:03;;;;;;;26.17;15.23;;;;;;;6.53;64.43;93665.81;5012544;28;20053;-69
2020/12/08 09:23:28;;;;;;;27.42;15.15;;;;;;;6.52;65.23;93664.28;5013735;28;20091;-69
2020/12/08 09:25:54;;;;;;;29.23;15.43;;;;;;;6.55;65.53;93666.31;5013476;28;20508;-72
2020/12/08 09:28:22;;;;;;;30.45;15.13;;;;;;;6.63;65.83;93665.69;5012368;28;20033;-71
2020/12/08 09:30:48;;;;;;;29.70;16.38;;;;;;;6.68;65.59;93662.13;5013609;28;20228;-72
2020/12/08 09:33:15;;;;;;;32.80;17.50;;;;;;;6.72;65.57;93651.75;5013993;28;20034;-72
2020/12/08 09:35:40;;;;;;;35.95;18.38;;;;;;;6.74;66.03;93657.53;5012587;28;20033;-72
2020/12/08 09:38:06;;;;;;;42.28;19.77;;;;;;;6.69;66.22;93652.31;5013516;28;20033;-72
2020/12/08 09:40:32;;;;;;;38.38;20.38;;;;;;;6.68;66.03;93656.06;5013361;28;20045;-72
2020/12/08 09:42:58;;;;;;;37.70;19.58;;;;;;;6.63;66.27;93652.44;5013230;28;20030;-70
2020/12/08 09:45:23;;;;;;;35.35;19.52;;;;;;;6.67;66.33;93649.19;5012221;28;20051;-72
2020/12/08 09:47:49;;;;;;;33.42;19.63;;;;;;;6.73;66.08;93654.09;5013542;28;20469;-72
2020/12/08 09:50:14;;;;;;;40.38;19.92;;;;;;;6.76;66.39;93655.38;5013094;28;20072;-70
2020/12/08 09:52:40;;;;;;;33.80;18.85;;;;;;;6.83;65.70;93647.81;5011959;28;20053;-72
2020/12/08 09:55:07;;;;;;;39.13;19.63;;;;;;;6.89;65.96;93651.16;5013508;28;20496;-71
2020/12/08 09:57:33;;;;;;;38.65;19.15;;;;;;;6.93;65.52;93650.28;5013285;28;20053;-69
2020/12/08 09:59:58;;;;;;;36.00;21.40;;;;;;;6.97;65.54;93647.81;5011646;28;20469;-71
2020/12/08 10:02:24;;;;;;;37.47;20.95;;;;;;;6.99;65.60;93654.41;5011702;28;20042;-69
2020/12/08 10:04:50;;;;;;;39.58;19.92;;;;;;;6.98;65.44;93662.63;5011698;28;20117;-68
2020/12/08 10:07:18;;;;;;;49.03;23.95;;;;;;;7.03;65.72;93663.31;5013080;28;20082;-68
2020/12/08 10:09:44;;;;;;;42.58;22.40;;;;;;;7.06;65.32;93658.50;5012829;28;20073;-69
2020/12/08 10:12:10;;;;;;;45.30;21.88;;;;;;;7.05;65.42;93655.09;5011667;28;20025;-68
2020/12/08 10:14:36;;;;;;;45.90;23.00;;;;;;;7.08;65.40;93654.47;5011390;28;20100;-68
2020/12/08 10:17:02;;;;;;;42.45;23.95;;;;;;;7.12;65.23;93660.75;5011394;28;20177;-72
2020/12/08 10:19:28;;;;;;;41.60;22.30;;;;;;;7.12;65.24;93652.03;5011399;28;20099;-69
2020/12/08 10:21:55;;;;;;;43.42;24.02;;;;;;;7.18;65.37;93654.28;5012909;28;20101;-68
2020/12/08 10:24:20;;;;;;;46.65;22.50;;;;;;;7.12;65.37;93657.31;5011307;28;20052;-70
2020/12/08 10:26:46;;;;;;;46.05;24.65;;;;;;;7.13;64.67;93646.44;5011490;28;20034;-68
2020/12/08 10:29:11;;;;;;;48.22;23.85;;;;;;;7.15;64.69;93654.09;5010865;28;20044;-68
2020/12/08 10:31:37;;;;;;;41.95;24.33;;;;;;;7.20;65.32;93646.81;5011019;28;20036;-71
2020/12/08 10:34:02;;;;;;;45.25;22.30;;;;;;;7.23;65.62;93648.88;5012525;28;20503;-71
2020/12/08 10:36:28;;;;;;;42.72;23.08;;;;;;;7.31;65.79;93655.34;5010950;28;20068;-70
2020/12/08 10:38:53;;;;;;;45.80;23.52;;;;;;;7.40;65.17;93645.59;5012140;28;20057;-69
2020/12/08 10:41:24;;;;;;;39.15;21.63;;;;;;;7.46;64.32;93635.69;5012235;28;20125;-69
2020/12/08 10:43:49;;;;;;;39.22;21.83;;;;;;;7.53;63.89;93636.06;5010595;28;20091;-69
2020/12/08 10:46:15;;;;;;;40.15;21.98;;;;;;;7.58;64.21;93640.47;5011984;28;20014;-69
2020/12/08 10:48:41;;;;;;;37.47;22.17;;;;;;;7.53;63.72;93635.25;5012002;28;20097;-69
2020/12/08 10:51:07;;;;;;;38.83;21.98;;;;;;;7.58;64.10;93640.47;5010013;28;20022;-70
2020/12/08 10:53:32;;;;;;;40.47;21.83;;;;;;;7.63;63.88;93643.81;5010438;28;20096;-70
2020/12/08 10:55:58;;;;;;;35.78;21.10;;;;;;;7.66;63.44;93639.75;5010280;28;20029;-69
2020/12/08 10:58:23;;;;;;;40.10;20.90;;;;;;;7.67;63.72;93643.97;5010545;28;20033;-71
2020/12/08 11:00:51;;;;;;;44.72;20.55;;;;;;;7.73;63.07;93648.06;5011885;28;20079;-70
2020/12/08 11:03:17;;;;;;;34.30;19.83;;;;;;;7.72;61.59;93638.56;5011948;28;20109;-70
2020/12/08 11:05:42;;;;;;;32.85;20.08;;;;;;;7.67;62.34;93649.28;5011973;28;20373;-70
2020/12/08 11:08:10;;;;;;;37.53;19.98;;;;;;;7.65;63.09;93648.78;5011594;28;20083;-69
2020/12/08 11:10:36;;;;;;;37.15;21.25;;;;;;;7.67;63.04;93643.97;5010106;28;20029;-69
2020/12/08 11:13:01;;;;;;;38.53;21.88;;;;;;;7.69;63.91;93654.28;5010254;28;20021;-68
2020/12/08 11:15:26;;;;;;;48.92;24.83;;;;;;;7.70;63.81;93642.59;5011598;28;20029;-69
2020/12/08 11:17:52;;;;;;;44.78;23.40;;;;;;;7.73;63.00;93637.47;5011938;28;20175;-68
2020/12/08 11:20:18;;;;;;;37.88;22.23;;;;;;;7.75;62.29;93650.44;5010218;28;20551;-70
2020/12/08 11:22:44;;;;;;;37.22;21.55;;;;;;;7.76;63.02;93631.56;5011533;28;20018;-71
2020/12/08 11:25:10;;;;;;;39.83;21.15;;;;;;;7.81;62.95;93636.75;5010149;28;20101;-70
2020/12/08 11:27:35;;;;;;;36.75;19.85;;;;;;;7.88;61.70;93639.00;5010147;28;20607;-71